sensor_id;sensor_type;location;lat;lon;timestamp;P1;durP1;ratioP1;P2;durP2;ratioP2
19285;SDS011;9776;50.798;6.430;2024-02-15T00:00:16;4.57;;;2.00;;
19285;SDS011;9776;50.798;6.430;2024-02-15T00:02:44;4.63;;;1.83;;
19285;SDS011;9776;50.798;6.430;2024-02-15T00:05:11;4.78;;;1.77;;
19285;SDS011;9776;50.798;6.430;2024-02-15T00:07:39;4.28;;;2.10;;
19285;SDS011;9776;50.798;6.430;2024-02-15T00:10:07;3.17;;;1.85;;
19285;SDS011;9776;50.798;6.430;2024-02-15T00:12:35;4.82;;;1.83;;
19285;SDS011;9776;50.798;6.430;2024-02-15T00:15:04;3.58;;;2.00;;
19285;SDS011;9776;50.798;6.430;2024-02-15T00:17:32;2.95;;;1.73;;
19285;SDS011;9776;50.798;6.430;2024-02-15T00:20:02;5.05;;;2.20;;
19285;SDS011;9776;50.798;6.430;2024-02-15T00:22:34;4.32;;;1.98;;
19285;SDS011;9776;50.798;6.430;2024-02-15T00:25:02;5.10;;;1.75;;
19285;SDS011;9776;50.798;6.430;2024-02-15T00:27:30;3.80;;;1.77;;
19285;SDS011;9776;50.798;6.430;2024-02-15T00:29:58;4.55;;;2.03;;
19285;SDS011;9776;50.798;6.430;2024-02-15T00:32:28;2.35;;;1.45;;
19285;SDS011;9776;50.798;6.430;2024-02-15T00:34:55;4.88;;;1.60;;
19285;SDS011;9776;50.798;6.430;2024-02-15T00:37:22;5.45;;;1.75;;
19285;SDS011;9776;50.798;6.430;2024-02-15T00:39:49;7.03;;;1.65;;
19285;SDS011;9776;50.798;6.430;2024-02-15T00:42:16;2.47;;;1.80;;
19285;SDS011;9776;50.798;6.430;2024-02-15T00:44:44;3.22;;;1.73;;
19285;SDS011;9776;50.798;6.430;2024-02-15T00:47:11;3.15;;;1.60;;
19285;SDS011;9776;50.798;6.430;2024-02-15T00:49:39;7.97;;;1.77;;
19285;SDS011;9776;50.798;6.430;2024-02-15T00:52:06;4.30;;;1.63;;
19285;SDS011;9776;50.798;6.430;2024-02-15T00:54:33;4.85;;;1.80;;
19285;SDS011;9776;50.798;6.430;2024-02-15T00:57:01;4.57;;;1.77;;
19285;SDS011;9776;50.798;6.430;2024-02-15T00:59:28;4.25;;;1.90;;
19285;SDS011;9776;50.798;6.430;2024-02-15T01:01:55;4.35;;;1.80;;
19285;SDS011;9776;50.798;6.430;2024-02-15T01:04:22;4.10;;;1.83;;
19285;SDS011;9776;50.798;6.430;2024-02-15T01:06:51;5.05;;;2.00;;
19285;SDS011;9776;50.798;6.430;2024-02-15T01:09:18;2.53;;;1.42;;
19285;SDS011;9776;50.798;6.430;2024-02-15T01:11:46;1.60;;;1.27;;
19285;SDS011;9776;50.798;6.430;2024-02-15T01:14:13;4.55;;;1.73;;
19285;SDS011;9776;50.798;6.430;2024-02-15T01:16:40;3.70;;;1.70;;
19285;SDS011;9776;50.798;6.430;2024-02-15T01:19:08;6.00;;;1.90;;
19285;SDS011;9776;50.798;6.430;2024-02-15T01:21:36;4.75;;;1.65;;
19285;SDS011;9776;50.798;6.430;2024-02-15T01:24:04;2.67;;;1.48;;
19285;SDS011;9776;50.798;6.430;2024-02-15T01:26:32;6.25;;;1.80;;
19285;SDS011;9776;50.798;6.430;2024-02-15T01:29:00;3.20;;;1.65;;
19285;SDS011;9776;50.798;6.430;2024-02-15T01:31:28;3.50;;;1.30;;
19285;SDS011;9776;50.798;6.430;2024-02-15T01:33:55;4.97;;;1.50;;
19285;SDS011;9776;50.798;6.430;2024-02-15T01:36:22;4.15;;;1.52;;
19285;SDS011;9776;50.798;6.430;2024-02-15T01:38:49;3.58;;;1.40;;
19285;SDS011;9776;50.798;6.430;2024-02-15T01:41:18;3.35;;;1.73;;
19285;SDS011;9776;50.798;6.430;2024-02-15T01:43:45;4.57;;;1.98;;
19285;SDS011;9776;50.798;6.430;2024-02-15T01:46:13;5.47;;;1.60;;
19285;SDS011;9776;50.798;6.430;2024-02-15T01:48:42;5.47;;;1.50;;
19285;SDS011;9776;50.798;6.430;2024-02-15T01:51:10;5.55;;;1.40;;
19285;SDS011;9776;50.798;6.430;2024-02-15T01:53:40;6.10;;;1.40;;
19285;SDS011;9776;50.798;6.430;2024-02-15T01:56:08;3.45;;;1.67;;
19285;SDS011;9776;50.798;6.430;2024-02-15T01:58:39;4.68;;;1.65;;
19285;SDS011;9776;50.798;6.430;2024-02-15T02:01:09;5.15;;;1.42;;
19285;SDS011;9776;50.798;6.430;2024-02-15T02:03:39;4.00;;;1.25;;
19285;SDS011;9776;50.798;6.430;2024-02-15T02:06:06;3.15;;;1.30;;
19285;SDS011;9776;50.798;6.430;2024-02-15T02:08:33;4.80;;;1.48;;
19285;SDS011;9776;50.798;6.430;2024-02-15T02:11:01;4.53;;;1.20;;
19285;SDS011;9776;50.798;6.430;2024-02-15T02:13:29;4.72;;;1.58;;
19285;SDS011;9776;50.798;6.430;2024-02-15T02:15:58;3.55;;;1.30;;
19285;SDS011;9776;50.798;6.430;2024-02-15T02:18:26;3.90;;;0.98;;
19285;SDS011;9776;50.798;6.430;2024-02-15T02:20:54;3.05;;;1.40;;
19285;SDS011;9776;50.798;6.430;2024-02-15T02:23:21;3.63;;;1.30;;
19285;SDS011;9776;50.798;6.430;2024-02-15T02:25:54;4.43;;;1.50;;
19285;SDS011;9776;50.798;6.430;2024-02-15T02:28:22;3.67;;;1.27;;
19285;SDS011;9776;50.798;6.430;2024-02-15T02:30:49;4.97;;;1.27;;
19285;SDS011;9776;50.798;6.430;2024-02-15T02:33:16;2.50;;;1.33;;
19285;SDS011;9776;50.798;6.430;2024-02-15T02:35:47;5.38;;;1.38;;
19285;SDS011;9776;50.798;6.430;2024-02-15T02:38:15;3.60;;;1.10;;
19285;SDS011;9776;50.798;6.430;2024-02-15T02:40:42;2.67;;;1.52;;
19285;SDS011;9776;50.798;6.430;2024-02-15T02:43:10;4.18;;;1.30;;
19285;SDS011;9776;50.798;6.430;2024-02-15T02:45:37;2.13;;;1.13;;
19285;SDS011;9776;50.798;6.430;2024-02-15T02:48:04;3.92;;;1.50;;
19285;SDS011;9776;50.798;6.430;2024-02-15T02:50:32;5.60;;;1.23;;
19285;SDS011;9776;50.798;6.430;2024-02-15T02:52:59;3.28;;;1.35;;
19285;SDS011;9776;50.798;6.430;2024-02-15T02:55:26;3.63;;;1.15;;
19285;SDS011;9776;50.798;6.430;2024-02-15T02:57:53;2.40;;;1.20;;
19285;SDS011;9776;50.798;6.430;2024-02-15T03:00:22;3.97;;;1.55;;
19285;SDS011;9776;50.798;6.430;2024-02-15T03:02:49;3.30;;;1.25;;
19285;SDS011;9776;50.798;6.430;2024-02-15T03:05:16;4.00;;;1.42;;
19285;SDS011;9776;50.798;6.430;2024-02-15T03:07:45;4.53;;;1.30;;
19285;SDS011;9776;50.798;6.430;2024-02-15T03:10:12;3.40;;;1.60;;
19285;SDS011;9776;50.798;6.430;2024-02-15T03:12:40;3.58;;;1.60;;
19285;SDS011;9776;50.798;6.430;2024-02-15T03:15:12;5.10;;;1.40;;
19285;SDS011;9776;50.798;6.430;2024-02-15T03:17:42;3.22;;;1.20;;
19285;SDS011;9776;50.798;6.430;2024-02-15T03:20:13;2.72;;;1.25;;
19285;SDS011;9776;50.798;6.430;2024-02-15T03:22:50;3.00;;;1.38;;
19285;SDS011;9776;50.798;6.430;2024-02-15T03:25:18;3.00;;;1.30;;
19285;SDS011;9776;50.798;6.430;2024-02-15T03:27:48;2.72;;;1.27;;
19285;SDS011;9776;50.798;6.430;2024-02-15T03:30:17;3.63;;;1.35;;
19285;SDS011;9776;50.798;6.430;2024-02-15T03:32:46;3.58;;;1.45;;
19285;SDS011;9776;50.798;6.430;2024-02-15T03:35:16;3.78;;;1.38;;
19285;SDS011;9776;50.798;6.430;2024-02-15T03:37:44;2.63;;;1.35;;
19285;SDS011;9776;50.798;6.430;2024-02-15T03:40:11;3.33;;;1.30;;
19285;SDS011;9776;50.798;6.430;2024-02-15T03:42:42;4.80;;;1.70;;
19285;SDS011;9776;50.798;6.430;2024-02-15T03:45:10;2.13;;;1.35;;
19285;SDS011;9776;50.798;6.430;2024-02-15T03:47:37;5.63;;;1.20;;
19285;SDS011;9776;50.798;6.430;2024-02-15T03:50:07;3.75;;;1.42;;
19285;SDS011;9776;50.798;6.430;2024-02-15T03:52:35;3.58;;;1.40;;
19285;SDS011;9776;50.798;6.430;2024-02-15T03:55:03;2.28;;;1.30;;
19285;SDS011;9776;50.798;6.430;2024-02-15T03:57:32;2.92;;;1.35;;
19285;SDS011;9776;50.798;6.430;2024-02-15T04:00:00;4.03;;;1.40;;
19285;SDS011;9776;50.798;6.430;2024-02-15T04:02:30;4.45;;;1.30;;
19285;SDS011;9776;50.798;6.430;2024-02-15T04:04:57;2.70;;;1.20;;
19285;SDS011;9776;50.798;6.430;2024-02-15T04:07:25;5.03;;;1.38;;
19285;SDS011;9776;50.798;6.430;2024-02-15T04:09:52;2.58;;;1.40;;
19285;SDS011;9776;50.798;6.430;2024-02-15T04:12:20;3.03;;;1.33;;
19285;SDS011;9776;50.798;6.430;2024-02-15T04:14:47;2.25;;;1.42;;
19285;SDS011;9776;50.798;6.430;2024-02-15T04:17:14;4.72;;;1.55;;
19285;SDS011;9776;50.798;6.430;2024-02-15T04:19:43;4.10;;;1.30;;
19285;SDS011;9776;50.798;6.430;2024-02-15T04:22:11;4.38;;;1.58;;
19285;SDS011;9776;50.798;6.430;2024-02-15T04:24:39;3.15;;;1.60;;
19285;SDS011;9776;50.798;6.430;2024-02-15T04:27:06;3.80;;;1.98;;
19285;SDS011;9776;50.798;6.430;2024-02-15T04:29:37;6.63;;;2.00;;
19285;SDS011;9776;50.798;6.430;2024-02-15T04:32:05;5.10;;;2.00;;
19285;SDS011;9776;50.798;6.430;2024-02-15T04:34:34;4.88;;;2.00;;
19285;SDS011;9776;50.798;6.430;2024-02-15T04:37:02;6.10;;;2.10;;
19285;SDS011;9776;50.798;6.430;2024-02-15T04:39:33;3.08;;;1.98;;
19285;SDS011;9776;50.798;6.430;2024-02-15T04:42:03;3.25;;;1.60;;
19285;SDS011;9776;50.798;6.430;2024-02-15T04:44:31;3.47;;;1.73;;
19285;SDS011;9776;50.798;6.430;2024-02-15T04:47:00;3.67;;;1.70;;
19285;SDS011;9776;50.798;6.430;2024-02-15T04:49:29;4.90;;;1.50;;
19285;SDS011;9776;50.798;6.430;2024-02-15T04:51:56;2.92;;;1.75;;
19285;SDS011;9776;50.798;6.430;2024-02-15T04:54:23;5.35;;;2.00;;
19285;SDS011;9776;50.798;6.430;2024-02-15T04:56:51;4.25;;;2.13;;
19285;SDS011;9776;50.798;6.430;2024-02-15T04:59:21;6.40;;;2.20;;
19285;SDS011;9776;50.798;6.430;2024-02-15T05:01:53;2.90;;;2.10;;
19285;SDS011;9776;50.798;6.430;2024-02-15T05:04:21;5.22;;;2.15;;
19285;SDS011;9776;50.798;6.430;2024-02-15T05:06:49;5.55;;;2.30;;
19285;SDS011;9776;50.798;6.430;2024-02-15T05:09:17;3.95;;;2.22;;
19285;SDS011;9776;50.798;6.430;2024-02-15T05:11:45;3.75;;;2.15;;
19285;SDS011;9776;50.798;6.430;2024-02-15T05:14:13;3.08;;;2.00;;
19285;SDS011;9776;50.798;6.430;2024-02-15T05:16:45;5.57;;;2.20;;
19285;SDS011;9776;50.798;6.430;2024-02-15T05:19:13;5.40;;;2.20;;
19285;SDS011;9776;50.798;6.430;2024-02-15T05:21:41;5.47;;;2.03;;
19285;SDS011;9776;50.798;6.430;2024-02-15T05:24:10;3.65;;;2.20;;
19285;SDS011;9776;50.798;6.430;2024-02-15T05:26:38;6.63;;;2.28;;
19285;SDS011;9776;50.798;6.430;2024-02-15T05:29:07;5.95;;;2.60;;
19285;SDS011;9776;50.798;6.430;2024-02-15T05:31:35;3.83;;;2.20;;
19285;SDS011;9776;50.798;6.430;2024-02-15T05:34:04;3.50;;;1.98;;
19285;SDS011;9776;50.798;6.430;2024-02-15T05:36:33;6.63;;;2.10;;
19285;SDS011;9776;50.798;6.430;2024-02-15T05:39:00;2.55;;;1.90;;
19285;SDS011;9776;50.798;6.430;2024-02-15T05:41:28;4.22;;;1.77;;
19285;SDS011;9776;50.798;6.430;2024-02-15T05:43:57;5.28;;;2.13;;
19285;SDS011;9776;50.798;6.430;2024-02-15T05:46:24;4.13;;;2.15;;
19285;SDS011;9776;50.798;6.430;2024-02-15T05:48:53;4.05;;;2.05;;
19285;SDS011;9776;50.798;6.430;2024-02-15T05:51:22;5.47;;;2.20;;
19285;SDS011;9776;50.798;6.430;2024-02-15T05:53:49;4.78;;;1.75;;
19285;SDS011;9776;50.798;6.430;2024-02-15T05:56:17;5.85;;;1.90;;
19285;SDS011;9776;50.798;6.430;2024-02-15T05:58:44;4.90;;;2.00;;
19285;SDS011;9776;50.798;6.430;2024-02-15T06:01:11;4.53;;;2.00;;
19285;SDS011;9776;50.798;6.430;2024-02-15T06:03:39;4.55;;;1.90;;
19285;SDS011;9776;50.798;6.430;2024-02-15T06:06:09;3.70;;;2.13;;
19285;SDS011;9776;50.798;6.430;2024-02-15T06:08:38;4.35;;;1.75;;
19285;SDS011;9776;50.798;6.430;2024-02-15T06:11:05;5.20;;;1.90;;
19285;SDS011;9776;50.798;6.430;2024-02-15T06:13:33;4.05;;;1.90;;
19285;SDS011;9776;50.798;6.430;2024-02-15T06:16:00;4.47;;;1.92;;
19285;SDS011;9776;50.798;6.430;2024-02-15T06:18:28;5.20;;;1.80;;
19285;SDS011;9776;50.798;6.430;2024-02-15T06:20:58;3.60;;;1.90;;
19285;SDS011;9776;50.798;6.430;2024-02-15T06:23:27;4.78;;;1.67;;
19285;SDS011;9776;50.798;6.430;2024-02-15T06:25:56;3.35;;;1.85;;
19285;SDS011;9776;50.798;6.430;2024-02-15T06:28:23;3.38;;;1.88;;
19285;SDS011;9776;50.798;6.430;2024-02-15T06:31:04;3.70;;;1.80;;
19285;SDS011;9776;50.798;6.430;2024-02-15T06:33:49;4.18;;;1.60;;
19285;SDS011;9776;50.798;6.430;2024-02-15T06:36:33;6.78;;;2.00;;
19285;SDS011;9776;50.798;6.430;2024-02-15T06:39:18;2.95;;;1.50;;
19285;SDS011;9776;50.798;6.430;2024-02-15T06:42:04;4.43;;;1.80;;
19285;SDS011;9776;50.798;6.430;2024-02-15T06:44:31;8.07;;;4.97;;
19285;SDS011;9776;50.798;6.430;2024-02-15T06:46:58;2.90;;;1.70;;
19285;SDS011;9776;50.798;6.430;2024-02-15T06:49:25;6.85;;;1.80;;
19285;SDS011;9776;50.798;6.430;2024-02-15T06:51:53;7.28;;;2.05;;
19285;SDS011;9776;50.798;6.430;2024-02-15T06:54:21;3.50;;;1.50;;
19285;SDS011;9776;50.798;6.430;2024-02-15T06:56:49;3.90;;;1.33;;
19285;SDS011;9776;50.798;6.430;2024-02-15T06:59:21;6.63;;;1.60;;
19285;SDS011;9776;50.798;6.430;2024-02-15T07:01:49;3.80;;;1.48;;
19285;SDS011;9776;50.798;6.430;2024-02-15T07:04:20;4.28;;;1.10;;
19285;SDS011;9776;50.798;6.430;2024-02-15T07:06:53;4.38;;;1.60;;
19285;SDS011;9776;50.798;6.430;2024-02-15T07:09:20;3.05;;;1.35;;
19285;SDS011;9776;50.798;6.430;2024-02-15T07:11:49;3.50;;;1.40;;
19285;SDS011;9776;50.798;6.430;2024-02-15T07:14:17;4.60;;;1.70;;
19285;SDS011;9776;50.798;6.430;2024-02-15T07:16:46;3.13;;;1.13;;
19285;SDS011;9776;50.798;6.430;2024-02-15T07:19:14;3.72;;;1.30;;
19285;SDS011;9776;50.798;6.430;2024-02-15T07:21:43;3.13;;;1.65;;
19285;SDS011;9776;50.798;6.430;2024-02-15T07:24:11;4.13;;;1.30;;
19285;SDS011;9776;50.798;6.430;2024-02-15T07:26:38;4.32;;;1.35;;
19285;SDS011;9776;50.798;6.430;2024-02-15T07:29:05;2.30;;;1.13;;
19285;SDS011;9776;50.798;6.430;2024-02-15T07:31:34;4.90;;;1.30;;
19285;SDS011;9776;50.798;6.430;2024-02-15T07:34:03;6.70;;;2.50;;
19285;SDS011;9776;50.798;6.430;2024-02-15T07:36:30;3.72;;;1.42;;
19285;SDS011;9776;50.798;6.430;2024-02-15T07:38:57;2.35;;;1.08;;
19285;SDS011;9776;50.798;6.430;2024-02-15T07:41:25;2.20;;;1.13;;
19285;SDS011;9776;50.798;6.430;2024-02-15T07:43:53;3.72;;;1.35;;
19285;SDS011;9776;50.798;6.430;2024-02-15T07:46:23;2.78;;;0.98;;
19285;SDS011;9776;50.798;6.430;2024-02-15T07:48:52;4.18;;;1.00;;
19285;SDS011;9776;50.798;6.430;2024-02-15T07:51:22;1.92;;;1.40;;
19285;SDS011;9776;50.798;6.430;2024-02-15T07:53:53;3.13;;;1.40;;
19285;SDS011;9776;50.798;6.430;2024-02-15T07:56:20;4.15;;;1.38;;
19285;SDS011;9776;50.798;6.430;2024-02-15T07:58:54;3.50;;;1.40;;
19285;SDS011;9776;50.798;6.430;2024-02-15T08:01:23;1.33;;;1.08;;
19285;SDS011;9776;50.798;6.430;2024-02-15T08:03:51;3.00;;;1.13;;
19285;SDS011;9776;50.798;6.430;2024-02-15T08:06:18;2.80;;;1.15;;
19285;SDS011;9776;50.798;6.430;2024-02-15T08:08:47;4.78;;;1.33;;
19285;SDS011;9776;50.798;6.430;2024-02-15T08:11:17;5.50;;;1.30;;
19285;SDS011;9776;50.798;6.430;2024-02-15T08:13:44;3.67;;;1.30;;
19285;SDS011;9776;50.798;6.430;2024-02-15T08:16:13;12.90;;;1.95;;
19285;SDS011;9776;50.798;6.430;2024-02-15T08:18:41;1.95;;;1.20;;
19285;SDS011;9776;50.798;6.430;2024-02-15T08:21:11;4.30;;;1.15;;
19285;SDS011;9776;50.798;6.430;2024-02-15T08:23:39;2.55;;;1.20;;
19285;SDS011;9776;50.798;6.430;2024-02-15T08:26:08;3.28;;;1.30;;
19285;SDS011;9776;50.798;6.430;2024-02-15T08:28:40;3.05;;;1.10;;
19285;SDS011;9776;50.798;6.430;2024-02-15T08:31:08;5.00;;;1.50;;
19285;SDS011;9776;50.798;6.430;2024-02-15T08:33:36;2.00;;;0.98;;
19285;SDS011;9776;50.798;6.430;2024-02-15T08:36:04;3.92;;;1.40;;
19285;SDS011;9776;50.798;6.430;2024-02-15T08:38:32;3.67;;;1.20;;
19285;SDS011;9776;50.798;6.430;2024-02-15T08:41:02;4.05;;;1.52;;
19285;SDS011;9776;50.798;6.430;2024-02-15T08:43:31;2.67;;;1.20;;
19285;SDS011;9776;50.798;6.430;2024-02-15T08:45:58;2.42;;;1.00;;
19285;SDS011;9776;50.798;6.430;2024-02-15T08:48:26;2.95;;;1.33;;
19285;SDS011;9776;50.798;6.430;2024-02-15T08:50:53;5.45;;;1.00;;
19285;SDS011;9776;50.798;6.430;2024-02-15T08:53:20;4.15;;;1.20;;
19285;SDS011;9776;50.798;6.430;2024-02-15T08:55:47;3.47;;;1.05;;
19285;SDS011;9776;50.798;6.430;2024-02-15T08:58:15;2.38;;;1.08;;
19285;SDS011;9776;50.798;6.430;2024-02-15T09:00:43;2.30;;;1.00;;
19285;SDS011;9776;50.798;6.430;2024-02-15T09:03:11;3.83;;;1.17;;
19285;SDS011;9776;50.798;6.430;2024-02-15T09:05:47;2.15;;;0.90;;
19285;SDS011;9776;50.798;6.430;2024-02-15T09:08:15;2.53;;;1.00;;
19285;SDS011;9776;50.798;6.430;2024-02-15T09:10:45;3.20;;;1.42;;
19285;SDS011;9776;50.798;6.430;2024-02-15T09:13:13;3.03;;;0.70;;
19285;SDS011;9776;50.798;6.430;2024-02-15T09:15:41;2.25;;;0.80;;
19285;SDS011;9776;50.798;6.430;2024-02-15T09:18:10;2.60;;;0.75;;
19285;SDS011;9776;50.798;6.430;2024-02-15T09:20:37;2.00;;;0.93;;
19285;SDS011;9776;50.798;6.430;2024-02-15T09:23:09;2.40;;;0.73;;
19285;SDS011;9776;50.798;6.430;2024-02-15T09:25:38;2.05;;;0.80;;
19285;SDS011;9776;50.798;6.430;2024-02-15T09:28:05;2.15;;;0.90;;
19285;SDS011;9776;50.798;6.430;2024-02-15T09:30:33;2.78;;;0.88;;
19285;SDS011;9776;50.798;6.430;2024-02-15T09:33:00;3.10;;;1.00;;
19285;SDS011;9776;50.798;6.430;2024-02-15T09:35:31;2.13;;;0.90;;
19285;SDS011;9776;50.798;6.430;2024-02-15T09:37:58;1.88;;;0.93;;
19285;SDS011;9776;50.798;6.430;2024-02-15T09:40:25;4.63;;;1.77;;
19285;SDS011;9776;50.798;6.430;2024-02-15T09:42:54;1.80;;;0.82;;
19285;SDS011;9776;50.798;6.430;2024-02-15T09:45:21;3.63;;;1.50;;
19285;SDS011;9776;50.798;6.430;2024-02-15T09:47:50;2.28;;;1.00;;
19285;SDS011;9776;50.798;6.430;2024-02-15T09:50:18;4.18;;;1.55;;
19285;SDS011;9776;50.798;6.430;2024-02-15T09:52:49;2.10;;;1.30;;
19285;SDS011;9776;50.798;6.430;2024-02-15T09:55:17;4.03;;;0.98;;
19285;SDS011;9776;50.798;6.430;2024-02-15T09:57:44;2.42;;;1.02;;
19285;SDS011;9776;50.798;6.430;2024-02-15T10:00:13;2.10;;;0.90;;
19285;SDS011;9776;50.798;6.430;2024-02-15T10:02:42;2.10;;;0.90;;
19285;SDS011;9776;50.798;6.430;2024-02-15T10:05:10;1.38;;;0.70;;
19285;SDS011;9776;50.798;6.430;2024-02-15T10:07:38;3.17;;;1.10;;
19285;SDS011;9776;50.798;6.430;2024-02-15T10:10:17;1.70;;;0.80;;
19285;SDS011;9776;50.798;6.430;2024-02-15T10:12:45;1.98;;;0.75;;
19285;SDS011;9776;50.798;6.430;2024-02-15T10:15:30;2.50;;;0.70;;
19285;SDS011;9776;50.798;6.430;2024-02-15T10:18:00;2.33;;;1.00;;
19285;SDS011;9776;50.798;6.430;2024-02-15T10:20:28;2.40;;;0.93;;
19285;SDS011;9776;50.798;6.430;2024-02-15T10:23:08;2.30;;;0.77;;
19285;SDS011;9776;50.798;6.430;2024-02-15T10:25:41;2.38;;;1.00;;
19285;SDS011;9776;50.798;6.430;2024-02-15T10:28:09;2.42;;;1.08;;
19285;SDS011;9776;50.798;6.430;2024-02-15T10:30:38;3.65;;;1.00;;
19285;SDS011;9776;50.798;6.430;2024-02-15T10:33:10;2.35;;;0.80;;
19285;SDS011;9776;50.798;6.430;2024-02-15T10:35:46;2.25;;;0.68;;
19285;SDS011;9776;50.798;6.430;2024-02-15T10:38:16;2.65;;;0.98;;
19285;SDS011;9776;50.798;6.430;2024-02-15T10:40:45;2.30;;;0.93;;
19285;SDS011;9776;50.798;6.430;2024-02-15T10:43:13;2.22;;;1.00;;
19285;SDS011;9776;50.798;6.430;2024-02-15T10:45:43;2.17;;;0.70;;
19285;SDS011;9776;50.798;6.430;2024-02-15T10:48:11;2.55;;;0.70;;
19285;SDS011;9776;50.798;6.430;2024-02-15T10:50:39;2.05;;;0.75;;
19285;SDS011;9776;50.798;6.430;2024-02-15T10:53:08;4.57;;;0.90;;
19285;SDS011;9776;50.798;6.430;2024-02-15T10:55:53;2.30;;;0.80;;
19285;SDS011;9776;50.798;6.430;2024-02-15T10:58:28;1.70;;;0.88;;
19285;SDS011;9776;50.798;6.430;2024-02-15T11:01:03;3.22;;;0.65;;
19285;SDS011;9776;50.798;6.430;2024-02-15T11:03:34;1.45;;;0.80;;
19285;SDS011;9776;50.798;6.430;2024-02-15T11:06:02;2.20;;;0.68;;
19285;SDS011;9776;50.798;6.430;2024-02-15T11:08:33;2.80;;;0.70;;
19285;SDS011;9776;50.798;6.430;2024-02-15T11:11:04;2.63;;;0.82;;
19285;SDS011;9776;50.798;6.430;2024-02-15T11:13:32;0.75;;;0.47;;
19285;SDS011;9776;50.798;6.430;2024-02-15T11:15:59;2.28;;;0.73;;
19285;SDS011;9776;50.798;6.430;2024-02-15T11:18:43;1.33;;;0.50;;
19285;SDS011;9776;50.798;6.430;2024-02-15T11:21:16;1.40;;;0.60;;
19285;SDS011;9776;50.798;6.430;2024-02-15T11:23:44;1.98;;;0.60;;
19285;SDS011;9776;50.798;6.430;2024-02-15T11:35:05;1.58;;;0.60;;
19285;SDS011;9776;50.798;6.430;2024-02-15T11:37:50;1.08;;;0.60;;
19285;SDS011;9776;50.798;6.430;2024-02-15T11:40:29;2.42;;;0.80;;
19285;SDS011;9776;50.798;6.430;2024-02-15T11:43:47;1.45;;;0.82;;
19285;SDS011;9776;50.798;6.430;2024-02-15T11:46:22;2.17;;;0.82;;
19285;SDS011;9776;50.798;6.430;2024-02-15T11:48:52;3.40;;;0.82;;
19285;SDS011;9776;50.798;6.430;2024-02-15T11:51:27;2.83;;;1.05;;
19285;SDS011;9776;50.798;6.430;2024-02-15T11:54:00;3.75;;;0.82;;
19285;SDS011;9776;50.798;6.430;2024-02-15T11:56:33;2.95;;;0.95;;
19285;SDS011;9776;50.798;6.430;2024-02-15T11:59:21;3.67;;;1.15;;
19285;SDS011;9776;50.798;6.430;2024-02-15T12:01:58;3.10;;;1.02;;
19285;SDS011;9776;50.798;6.430;2024-02-15T12:04:42;1.75;;;0.93;;
19285;SDS011;9776;50.798;6.430;2024-02-15T12:07:27;1.70;;;0.82;;
19285;SDS011;9776;50.798;6.430;2024-02-15T12:10:15;3.50;;;0.80;;
19285;SDS011;9776;50.798;6.430;2024-02-15T12:13:00;2.70;;;0.80;;
19285;SDS011;9776;50.798;6.430;2024-02-15T12:15:57;1.60;;;0.80;;
19285;SDS011;9776;50.798;6.430;2024-02-15T12:18:42;1.25;;;0.45;;
19285;SDS011;9776;50.798;6.430;2024-02-15T12:21:12;1.25;;;0.50;;
19285;SDS011;9776;50.798;6.430;2024-02-15T12:23:42;1.45;;;0.50;;
19285;SDS011;9776;50.798;6.430;2024-02-15T12:26:10;1.65;;;0.75;;
19285;SDS011;9776;50.798;6.430;2024-02-15T12:28:39;0.88;;;0.50;;
19285;SDS011;9776;50.798;6.430;2024-02-15T12:31:09;0.73;;;0.43;;
19285;SDS011;9776;50.798;6.430;2024-02-15T12:33:36;1.10;;;0.45;;
19285;SDS011;9776;50.798;6.430;2024-02-15T12:36:04;0.55;;;0.40;;
19285;SDS011;9776;50.798;6.430;2024-02-15T12:38:32;1.70;;;0.40;;
19285;SDS011;9776;50.798;6.430;2024-02-15T12:41:02;0.77;;;0.52;;
19285;SDS011;9776;50.798;6.430;2024-02-15T12:43:30;1.85;;;0.52;;
19285;SDS011;9776;50.798;6.430;2024-02-15T12:45:58;4.32;;;0.60;;
19285;SDS011;9776;50.798;6.430;2024-02-15T12:48:27;1.73;;;0.50;;
19285;SDS011;9776;50.798;6.430;2024-02-15T12:50:54;2.83;;;0.45;;
19285;SDS011;9776;50.798;6.430;2024-02-15T12:53:22;1.02;;;0.47;;
19285;SDS011;9776;50.798;6.430;2024-02-15T12:55:52;4.25;;;0.52;;
19285;SDS011;9776;50.798;6.430;2024-02-15T12:58:19;2.03;;;0.43;;
19285;SDS011;9776;50.798;6.430;2024-02-15T13:00:50;2.50;;;0.50;;
19285;SDS011;9776;50.798;6.430;2024-02-15T13:03:20;1.95;;;0.50;;
19285;SDS011;9776;50.798;6.430;2024-02-15T13:05:49;3.95;;;0.60;;
19285;SDS011;9776;50.798;6.430;2024-02-15T13:08:17;2.40;;;0.50;;
19285;SDS011;9776;50.798;6.430;2024-02-15T13:10:45;2.08;;;0.47;;
19285;SDS011;9776;50.798;6.430;2024-02-15T13:13:12;1.83;;;0.57;;
19285;SDS011;9776;50.798;6.430;2024-02-15T13:15:48;1.35;;;0.50;;
19285;SDS011;9776;50.798;6.430;2024-02-15T13:18:17;1.92;;;0.50;;
19285;SDS011;9776;50.798;6.430;2024-02-15T13:20:47;1.67;;;0.60;;
19285;SDS011;9776;50.798;6.430;2024-02-15T13:23:19;1.60;;;0.52;;
19285;SDS011;9776;50.798;6.430;2024-02-15T13:25:48;1.80;;;0.50;;
19285;SDS011;9776;50.798;6.430;2024-02-15T13:28:18;1.83;;;0.60;;
19285;SDS011;9776;50.798;6.430;2024-02-15T13:30:45;2.13;;;0.50;;
19285;SDS011;9776;50.798;6.430;2024-02-15T13:33:14;1.33;;;0.50;;
19285;SDS011;9776;50.798;6.430;2024-02-15T13:35:43;2.80;;;0.52;;
19285;SDS011;9776;50.798;6.430;2024-02-15T13:38:11;2.35;;;0.40;;
19285;SDS011;9776;50.798;6.430;2024-02-15T13:40:41;2.70;;;0.60;;
19285;SDS011;9776;50.798;6.430;2024-02-15T13:43:09;1.38;;;0.50;;
19285;SDS011;9776;50.798;6.430;2024-02-15T13:45:38;1.95;;;0.60;;
19285;SDS011;9776;50.798;6.430;2024-02-15T13:48:07;1.15;;;0.50;;
19285;SDS011;9776;50.798;6.430;2024-02-15T13:50:38;1.63;;;0.55;;
19285;SDS011;9776;50.798;6.430;2024-02-15T13:53:05;1.40;;;0.60;;
19285;SDS011;9776;50.798;6.430;2024-02-15T13:55:34;1.88;;;0.70;;
19285;SDS011;9776;50.798;6.430;2024-02-15T13:58:04;0.93;;;0.40;;
19285;SDS011;9776;50.798;6.430;2024-02-15T14:00:33;1.80;;;0.45;;
19285;SDS011;9776;50.798;6.430;2024-02-15T14:03:00;1.35;;;0.40;;
19285;SDS011;9776;50.798;6.430;2024-02-15T14:05:31;2.90;;;0.60;;
19285;SDS011;9776;50.798;6.430;2024-02-15T14:08:00;3.00;;;0.70;;
19285;SDS011;9776;50.798;6.430;2024-02-15T14:10:31;3.20;;;0.70;;
19285;SDS011;9776;50.798;6.430;2024-02-15T14:13:03;2.90;;;0.68;;
19285;SDS011;9776;50.798;6.430;2024-02-15T14:15:34;1.30;;;0.60;;
19285;SDS011;9776;50.798;6.430;2024-02-15T14:18:06;1.55;;;0.63;;
19285;SDS011;9776;50.798;6.430;2024-02-15T14:20:35;1.17;;;0.43;;
19285;SDS011;9776;50.798;6.430;2024-02-15T14:23:07;2.53;;;0.60;;
19285;SDS011;9776;50.798;6.430;2024-02-15T14:25:39;0.95;;;0.47;;
19285;SDS011;9776;50.798;6.430;2024-02-15T14:28:07;2.55;;;0.73;;
19285;SDS011;9776;50.798;6.430;2024-02-15T14:30:34;3.67;;;0.70;;
19285;SDS011;9776;50.798;6.430;2024-02-15T14:33:21;1.13;;;0.60;;
19285;SDS011;9776;50.798;6.430;2024-02-15T14:35:52;1.45;;;0.63;;
19285;SDS011;9776;50.798;6.430;2024-02-15T14:38:20;1.27;;;0.60;;
19285;SDS011;9776;50.798;6.430;2024-02-15T14:40:49;1.33;;;0.52;;
19285;SDS011;9776;50.798;6.430;2024-02-15T14:43:20;4.75;;;0.60;;
19285;SDS011;9776;50.798;6.430;2024-02-15T14:45:48;2.60;;;0.63;;
19285;SDS011;9776;50.798;6.430;2024-02-15T14:48:20;3.63;;;0.63;;
19285;SDS011;9776;50.798;6.430;2024-02-15T14:50:49;2.75;;;0.73;;
19285;SDS011;9776;50.798;6.430;2024-02-15T14:53:17;1.27;;;0.65;;
19285;SDS011;9776;50.798;6.430;2024-02-15T14:55:45;2.08;;;0.77;;
19285;SDS011;9776;50.798;6.430;2024-02-15T14:58:12;1.95;;;0.70;;
19285;SDS011;9776;50.798;6.430;2024-02-15T15:00:43;1.13;;;0.60;;
19285;SDS011;9776;50.798;6.430;2024-02-15T15:03:10;1.08;;;0.77;;
19285;SDS011;9776;50.798;6.430;2024-02-15T15:05:38;1.48;;;0.70;;
19285;SDS011;9776;50.798;6.430;2024-02-15T15:08:22;3.53;;;0.82;;
19285;SDS011;9776;50.798;6.430;2024-02-15T15:11:06;2.30;;;0.65;;
19285;SDS011;9776;50.798;6.430;2024-02-15T15:13:51;1.95;;;0.73;;
19285;SDS011;9776;50.798;6.430;2024-02-15T15:16:19;1.60;;;0.70;;
19285;SDS011;9776;50.798;6.430;2024-02-15T15:18:49;3.05;;;1.00;;
19285;SDS011;9776;50.798;6.430;2024-02-15T15:21:17;4.00;;;0.90;;
19285;SDS011;9776;50.798;6.430;2024-02-15T15:23:46;1.80;;;0.80;;